Terminal Aerodrome Forecast
Issued by NWS Raleigh/Durham, NC

Home | Current Version | Previous Version | Text Only | Print | Product List | Glossary On
Versions: 1 2 3 4 5 6 7 8 9 10 11 12 13 14 15 16 17 18 19 20 21 22 23 24 25 26 27 28 29 30 31 32 33 34 35 36 37
000
FTUS42 KRAH 220238 AAA
TAFRDU
TAF AMD
KRDU 220238Z 2203/2224 08004KT P6SM OVC050
      TEMPO 2204/2207 -RA BKN035
     FM220700 04007KT 5SM -RA BR BKN015 OVC030
     FM220900 03009KT 2SM -RA BR OVC007=

USA.gov is the U.S. government's official web portal to all federal, state and local government web resources and services.